Time;durP1;ratioP1;P1;durP2;ratioP2;P2;SDS_P1;SDS_P2;PMS_P1;PMS_P2;Temp;Humidity;BMP_temperature;BMP_pressure;BME280_temperature;BME280_humidity;BME280_pressure;Samples;Min_cycle;Max_cycle;Signal;HPM_P1;HPM_P2
2022/01/09 00:01:36;;;;;;;15.70;6.63;;;;;;;;;;5096470;28;20035;-59
2022/01/09 00:04:02;;;;;;;9.05;5.72;;;;;;;;;;5095933;28;20028;-61
2022/01/09 00:06:28;;;;;;;13.75;7.15;;;;;;;;;;5096245;28;20027;-61
2022/01/09 00:08:53;;;;;;;14.63;6.85;;;;;;;;;;5095838;28;20428;-64
2022/01/09 00:11:25;;;;;;;12.25;6.90;;;;;;;;;;5077852;28;20024;-66
2022/01/09 00:13:51;;;;;;;17.85;7.95;;;;;;;;;;5075864;28;20415;-66
2022/01/09 00:16:16;;;;;;;12.75;7.47;;;;;;;;;;5093220;28;20062;-66
2022/01/09 00:18:42;;;;;;;12.25;8.20;;;;;;;;;;5094724;28;20386;-58
2022/01/09 00:21:07;;;;;;;14.45;7.63;;;;;;;;;;5095798;28;20077;-67
2022/01/09 00:23:34;;;;;;;20.85;9.07;;;;;;;;;;5082211;28;20098;-66
2022/01/09 00:26:00;;;;;;;12.77;7.93;;;;;;;;;;5075344;28;20035;-66
2022/01/09 00:28:25;;;;;;;16.33;9.25;;;;;;;;;;5085942;28;20037;-67
2022/01/09 00:30:51;;;;;;;16.98;11.05;;;;;;;;;;5074965;28;20442;-67
2022/01/09 00:33:21;;;;;;;12.25;6.38;;;;;;;;;;5057670;28;20029;-66
2022/01/09 00:35:46;;;;;;;15.50;8.20;;;;;;;;;;5074933;28;20049;-65
2022/01/09 00:38:12;;;;;;;12.73;6.63;;;;;;;;;;5081445;28;20088;-66
2022/01/09 00:40:38;;;;;;;13.77;7.80;;;;;;;;;;5095602;28;20047;-66
2022/01/09 00:43:08;;;;;;;12.57;8.10;;;;;;;;;;5095535;28;20028;-62
2022/01/09 00:45:34;;;;;;;14.93;6.93;;;;;;;;;;5095511;28;20165;-62
2022/01/09 00:47:59;;;;;;;11.10;6.43;;;;;;;;;;5095405;28;20557;-66
2022/01/09 00:50:24;;;;;;;9.18;5.47;;;;;;;;;;5095337;28;20123;-66
2022/01/09 00:52:50;;;;;;;14.65;8.63;;;;;;;;;;5091602;28;20029;-64
2022/01/09 00:55:15;;;;;;;11.15;5.72;;;;;;;;;;5074992;28;20104;-66
2022/01/09 00:57:41;;;;;;;18.88;8.10;;;;;;;;;;5075141;28;20027;-66
2022/01/09 01:00:08;;;;;;;14.43;7.93;;;;;;;;;;5074891;28;20119;-63
2022/01/09 01:02:33;;;;;;;13.98;7.88;;;;;;;;;;5074780;28;20020;-65
2022/01/09 01:04:59;;;;;;;17.90;9.35;;;;;;;;;;5083933;28;20051;-64
2022/01/09 01:07:27;;;;;;;11.00;5.95;;;;;;;;;;5094908;28;20028;-62
2022/01/09 01:09:53;;;;;;;14.27;8.82;;;;;;;;;;5094921;28;20028;-63
2022/01/09 01:12:18;;;;;;;13.15;7.88;;;;;;;;;;5076827;28;20101;-65
2022/01/09 01:14:44;;;;;;;14.38;7.18;;;;;;;;;;5094911;28;20031;-64
2022/01/09 01:17:09;;;;;;;12.50;7.95;;;;;;;;;;5094693;28;20035;-60
2022/01/09 01:19:35;;;;;;;15.45;8.02;;;;;;;;;;5094952;28;20028;-63
2022/01/09 01:22:01;;;;;;;11.95;7.80;;;;;;;;;;5094512;28;20107;-63
2022/01/09 01:24:27;;;;;;;16.05;10.48;;;;;;;;;;5094612;28;20024;-62
2022/01/09 01:26:52;;;;;;;13.60;9.63;;;;;;;;;;5090310;28;20027;-66
2022/01/09 01:29:18;;;;;;;15.02;7.63;;;;;;;;;;5078526;28;20079;-66
2022/01/09 01:31:43;;;;;;;12.43;8.00;;;;;;;;;;5074379;28;20115;-65
2022/01/09 01:34:12;;;;;;;10.30;6.30;;;;;;;;;;5074134;28;20040;-66
2022/01/09 01:36:38;;;;;;;11.60;6.90;;;;;;;;;;5073826;28;20141;-63
2022/01/09 01:39:03;;;;;;;16.30;7.95;;;;;;;;;;5074174;28;20471;-65
2022/01/09 01:41:28;;;;;;;13.82;7.05;;;;;;;;;;5074150;28;20063;-64
2022/01/09 01:43:54;;;;;;;14.18;7.00;;;;;;;;;;5078154;28;20077;-63
2022/01/09 01:46:19;;;;;;;10.68;5.50;;;;;;;;;;5094336;28;20103;-64
2022/01/09 01:48:45;;;;;;;15.85;9.48;;;;;;;;;;5085059;28;20081;-63
2022/01/09 01:51:10;;;;;;;16.75;8.10;;;;;;;;;;5073843;28;20027;-62
2022/01/09 01:53:38;;;;;;;15.57;7.82;;;;;;;;;;5074037;28;20063;-60
2022/01/09 01:56:05;;;;;;;14.57;7.25;;;;;;;;;;5056776;28;20060;-66
2022/01/09 01:58:34;;;;;;;17.38;8.50;;;;;;;;;;5094042;28;20016;-66
2022/01/09 02:01:01;;;;;;;17.67;7.55;;;;;;;;;;5093963;28;20126;-66
2022/01/09 02:03:26;;;;;;;12.25;6.57;;;;;;;;;;5093525;28;20120;-66
2022/01/09 02:05:52;;;;;;;13.07;5.93;;;;;;;;;;5093641;28;20102;-67
2022/01/09 02:08:18;;;;;;;10.98;6.45;;;;;;;;;;5093957;28;20077;-66
2022/01/09 02:10:45;;;;;;;13.20;7.78;;;;;;;;;;5093841;28;20069;-66
2022/01/09 02:13:11;;;;;;;15.57;6.93;;;;;;;;;;5093418;28;20116;-66
2022/01/09 02:15:43;;;;;;;18.42;8.27;;;;;;;;;;5093758;28;20404;-66
2022/01/09 02:18:11;;;;;;;15.35;7.18;;;;;;;;;;5093378;28;20477;-67
2022/01/09 02:20:38;;;;;;;12.38;7.85;;;;;;;;;;5093621;28;20032;-66
2022/01/09 02:23:06;;;;;;;18.58;10.55;;;;;;;;;;5079502;28;20020;-65
2022/01/09 02:25:32;;;;;;;17.90;9.10;;;;;;;;;;5087656;28;20046;-67
2022/01/09 02:27:58;;;;;;;10.63;6.18;;;;;;;;;;5087579;28;20078;-66
2022/01/09 02:30:24;;;;;;;16.52;8.43;;;;;;;;;;5080781;28;20500;-64
2022/01/09 02:32:49;;;;;;;13.35;7.35;;;;;;;;;;5080142;28;20383;-63
2022/01/09 02:35:15;;;;;;;14.77;8.07;;;;;;;;;;5080091;28;20034;-64
2022/01/09 02:37:40;;;;;;;11.45;6.95;;;;;;;;;;5086394;28;20071;-66
2022/01/09 02:40:07;;;;;;;9.32;5.50;;;;;;;;;;5093140;28;20418;-66
2022/01/09 02:42:34;;;;;;;16.25;10.70;;;;;;;;;;5094637;28;20490;-65
2022/01/09 02:45:00;;;;;;;10.80;5.30;;;;;;;;;;5113643;28;20039;-66
2022/01/09 02:47:29;;;;;;;15.90;7.90;;;;;;;;;;5113252;28;20019;-65
2022/01/09 02:49:56;;;;;;;9.95;6.28;;;;;;;;;;5100403;28;20035;-66
2022/01/09 02:52:32;;;;;;;8.52;4.95;;;;;;;;;;5092909;28;20073;-64
2022/01/09 02:55:14;;;;;;;14.65;6.72;;;;;;;;;;5092944;28;20028;-65
2022/01/09 02:57:44;;;;;;;16.75;10.23;;;;;;;;;;5092916;28;20409;-64
2022/01/09 03:00:11;;;;;;;;;;;;;;;;;;5093109;28;20035;-65
2022/01/09 03:02:37;;;;;;;12.63;7.47;;;;;;;;;;5092474;28;19912;-65
2022/01/09 03:05:03;;;;;;;13.43;7.72;;;;;;;;;;5092664;28;20024;-66
2022/01/09 03:07:28;;;;;;;10.80;5.15;;;;;;;;;;5093122;28;20031;-66
2022/01/09 03:09:54;;;;;;;11.50;6.20;;;;;;;;;;5092513;28;20555;-65
2022/01/09 03:12:20;;;;;;;13.38;8.23;;;;;;;;;;5092602;28;20039;-66
2022/01/09 03:14:46;;;;;;;16.08;6.43;;;;;;;;;;5092533;28;20032;-63
2022/01/09 03:17:12;;;;;;;13.13;7.43;;;;;;;;;;5112268;28;20122;-66
2022/01/09 03:19:38;;;;;;;10.48;5.63;;;;;;;;;;5113309;28;20035;-66
2022/01/09 03:22:03;;;;;;;16.95;8.10;;;;;;;;;;5101520;28;20028;-63
2022/01/09 03:24:29;;;;;;;17.55;8.05;;;;;;;;;;5092601;28;20028;-65
2022/01/09 03:26:54;;;;;;;11.23;7.70;;;;;;;;;;5092313;28;20024;-64
2022/01/09 03:29:20;;;;;;;12.93;8.60;;;;;;;;;;5092552;28;20539;-66
2022/01/09 03:31:45;;;;;;;13.30;7.28;;;;;;;;;;5091976;28;20050;-63
2022/01/09 03:34:10;;;;;;;15.80;8.50;;;;;;;;;;5092712;28;20455;-63
2022/01/09 03:36:36;;;;;;;9.40;6.55;;;;;;;;;;5092461;28;20485;-65
2022/01/09 03:39:02;;;;;;;13.23;6.80;;;;;;;;;;5092386;28;20438;-65
2022/01/09 03:41:27;;;;;;;14.15;8.10;;;;;;;;;;5092654;28;20028;-63
2022/01/09 03:43:52;;;;;;;15.98;7.95;;;;;;;;;;5092522;28;20059;-66
2022/01/09 03:46:18;;;;;;;10.45;6.20;;;;;;;;;;5092350;28;20020;-66
2022/01/09 03:48:43;;;;;;;11.82;6.25;;;;;;;;;;5091841;28;20055;-67
2022/01/09 03:51:10;;;;;;;16.63;7.95;;;;;;;;;;5086727;28;20051;-66
2022/01/09 03:53:36;;;;;;;10.68;8.02;;;;;;;;;;5073124;28;20029;-66
2022/01/09 03:56:02;;;;;;;8.77;5.47;;;;;;;;;;5084492;28;20020;-66
2022/01/09 03:58:27;;;;;;;15.02;7.03;;;;;;;;;;5092588;28;20451;-66
2022/01/09 04:00:53;;;;;;;21.35;8.77;;;;;;;;;;5112662;28;20466;-66
2022/01/09 04:03:18;;;;;;;15.38;8.27;;;;;;;;;;5112874;28;20039;-66
2022/01/09 04:05:43;;;;;;;16.65;8.15;;;;;;;;;;5103630;28;20020;-64
2022/01/09 04:08:09;;;;;;;15.00;8.30;;;;;;;;;;5096134;28;20027;-66
2022/01/09 04:10:40;;;;;;;16.52;8.60;;;;;;;;;;5096064;28;20031;-65
2022/01/09 04:13:06;;;;;;;10.32;5.85;;;;;;;;;;5095370;28;20020;-65
2022/01/09 04:15:32;;;;;;;15.63;9.75;;;;;;;;;;5095637;28;20172;-66
2022/01/09 04:17:58;;;;;;;13.05;7.40;;;;;;;;;;5095755;28;20528;-66
2022/01/09 04:20:28;;;;;;;16.90;9.10;;;;;;;;;;5095638;28;20031;-66
2022/01/09 04:22:54;;;;;;;12.10;7.97;;;;;;;;;;5095874;28;20024;-66
2022/01/09 04:25:19;;;;;;;8.50;4.68;;;;;;;;;;5096013;28;20394;-66
2022/01/09 04:27:47;;;;;;;11.25;4.90;;;;;;;;;;5095872;28;20032;-62
2022/01/09 04:30:14;;;;;;;13.15;8.02;;;;;;;;;;5095444;28;20028;-65
2022/01/09 04:32:40;;;;;;;16.13;8.52;;;;;;;;;;5095156;28;20028;-64
2022/01/09 04:35:06;;;;;;;13.10;6.47;;;;;;;;;;5095170;28;20411;-65
2022/01/09 04:37:33;;;;;;;12.05;6.63;;;;;;;;;;5095172;28;20047;-66
2022/01/09 04:39:59;;;;;;;7.55;4.38;;;;;;;;;;5095162;28;20084;-66
2022/01/09 04:42:31;;;;;;;9.07;4.40;;;;;;;;;;5095334;28;20028;-62
2022/01/09 04:44:57;;;;;;;18.15;8.05;;;;;;;;;;5098899;28;20031;-66
2022/01/09 04:47:23;;;;;;;9.05;5.35;;;;;;;;;;5108617;28;20153;-66
2022/01/09 04:49:49;;;;;;;15.70;6.85;;;;;;;;;;5095155;28;20024;-66
2022/01/09 04:52:19;;;;;;;17.67;8.13;;;;;;;;;;5095279;28;20028;-67
2022/01/09 04:54:45;;;;;;;17.13;7.82;;;;;;;;;;5095050;28;20028;-65
2022/01/09 04:57:11;;;;;;;10.63;6.53;;;;;;;;;;5095041;28;20044;-63
2022/01/09 04:59:36;;;;;;;10.05;6.03;;;;;;;;;;5104091;28;20047;-66
2022/01/09 05:02:02;;;;;;;12.20;6.07;;;;;;;;;;5094886;28;20032;-66
2022/01/09 05:04:28;;;;;;;10.68;6.50;;;;;;;;;;5094551;28;20028;-65
2022/01/09 05:06:53;;;;;;;11.23;6.63;;;;;;;;;;5074768;28;20020;-66
2022/01/09 05:09:18;;;;;;;12.45;7.40;;;;;;;;;;5090489;28;20073;-66
2022/01/09 05:11:44;;;;;;;15.40;8.13;;;;;;;;;;5090985;28;20047;-66
2022/01/09 05:14:09;;;;;;;15.70;8.55;;;;;;;;;;5094207;28;20051;-64
2022/01/09 05:16:35;;;;;;;12.00;5.60;;;;;;;;;;5094482;28;20132;-63
2022/01/09 05:19:06;;;;;;;13.82;6.50;;;;;;;;;;5092347;28;20083;-66
2022/01/09 05:21:33;;;;;;;15.88;9.15;;;;;;;;;;5076941;28;20032;-65
2022/01/09 05:23:58;;;;;;;16.05;8.40;;;;;;;;;;5094295;28;20089;-66
2022/01/09 05:26:23;;;;;;;16.23;9.68;;;;;;;;;;5094307;28;20023;-59
2022/01/09 05:28:49;;;;;;;17.05;6.90;;;;;;;;;;5094560;28;20073;-63
2022/01/09 05:31:14;;;;;;;13.85;7.50;;;;;;;;;;5094556;28;20032;-58
2022/01/09 05:33:40;;;;;;;23.25;9.55;;;;;;;;;;5094348;28;20054;-66
2022/01/09 05:36:05;;;;;;;16.55;7.95;;;;;;;;;;5094141;28;20154;-65
2022/01/09 05:38:32;;;;;;;15.75;8.35;;;;;;;;;;5093873;28;20074;-65
2022/01/09 05:40:57;;;;;;;13.73;6.13;;;;;;;;;;5094303;28;20032;-66
2022/01/09 05:43:23;;;;;;;19.17;9.35;;;;;;;;;;5094579;28;20027;-66
2022/01/09 05:45:48;;;;;;;17.15;8.77;;;;;;;;;;5094017;28;20024;-65
2022/01/09 05:48:14;;;;;;;17.48;9.32;;;;;;;;;;5094370;28;20024;-65
2022/01/09 05:50:39;;;;;;;15.32;8.20;;;;;;;;;;5093607;28;20036;-64
2022/01/09 05:53:05;;;;;;;21.45;10.57;;;;;;;;;;5094037;28;20115;-62
2022/01/09 05:55:30;;;;;;;11.40;7.20;;;;;;;;;;5093758;28;20031;-58
2022/01/09 05:57:56;;;;;;;13.13;7.72;;;;;;;;;;5093799;28;20020;-64
2022/01/09 06:00:23;;;;;;;17.88;8.73;;;;;;;;;;5093837;28;20024;-62
2022/01/09 06:02:48;;;;;;;21.88;11.25;;;;;;;;;;5093797;28;20036;-61
2022/01/09 06:05:14;;;;;;;9.43;5.57;;;;;;;;;;5093615;28;20028;-63
2022/01/09 06:07:41;;;;;;;15.75;10.57;;;;;;;;;;5093548;28;20073;-62
2022/01/09 06:10:08;;;;;;;16.58;9.65;;;;;;;;;;5092956;28;20611;-62
2022/01/09 06:12:33;;;;;;;18.58;10.77;;;;;;;;;;5075381;28;20051;-64
2022/01/09 06:14:59;;;;;;;26.45;17.02;;;;;;;;;;5093520;28;20466;-64
2022/01/09 06:17:24;;;;;;;26.63;12.20;;;;;;;;;;5075174;28;20093;-66
2022/01/09 06:19:50;;;;;;;26.08;15.90;;;;;;;;;;5093572;28;20036;-66
2022/01/09 06:22:18;;;;;;;19.48;11.10;;;;;;;;;;5093518;28;20032;-65
2022/01/09 06:24:50;;;;;;;23.13;11.27;;;;;;;;;;5093434;28;20036;-58
2022/01/09 06:27:16;;;;;;;15.32;8.30;;;;;;;;;;5093214;28;20024;-65
2022/01/09 06:29:42;;;;;;;11.35;6.80;;;;;;;;;;5092867;28;20042;-64
2022/01/09 06:32:08;;;;;;;17.92;9.23;;;;;;;;;;5093387;28;20028;-65
2022/01/09 06:34:33;;;;;;;16.90;8.88;;;;;;;;;;5093396;28;20028;-66
2022/01/09 06:36:58;;;;;;;15.75;8.27;;;;;;;;;;5093006;28;20156;-66
2022/01/09 06:39:24;;;;;;;15.80;8.98;;;;;;;;;;5092985;28;20424;-64
2022/01/09 06:41:49;;;;;;;14.98;9.30;;;;;;;;;;5093288;28;20024;-63
2022/01/09 06:44:15;;;;;;;17.27;9.32;;;;;;;;;;5093083;28;20038;-66
2022/01/09 06:46:41;;;;;;;13.40;6.53;;;;;;;;;;5092961;28;20047;-66
2022/01/09 06:49:07;;;;;;;16.75;9.45;;;;;;;;;;5092679;28;20024;-64
2022/01/09 06:51:32;;;;;;;15.05;8.30;;;;;;;;;;5102501;28;20032;-66
2022/01/09 06:53:58;;;;;;;18.30;8.80;;;;;;;;;;5094419;28;20448;-63
2022/01/09 06:56:23;;;;;;;16.55;10.30;;;;;;;;;;5092826;28;20435;-66
2022/01/09 06:58:49;;;;;;;18.15;10.27;;;;;;;;;;5093019;28;20032;-63
2022/01/09 07:01:14;;;;;;;13.68;9.32;;;;;;;;;;5092492;28;20498;-61
2022/01/09 07:03:40;;;;;;;17.95;10.27;;;;;;;;;;5092780;28;20467;-61
2022/01/09 07:06:06;;;;;;;23.45;11.32;;;;;;;;;;5092749;28;20032;-65
2022/01/09 07:08:33;;;;;;;18.58;9.45;;;;;;;;;;5092448;28;20020;-61
2022/01/09 07:10:59;;;;;;;16.80;10.18;;;;;;;;;;5092697;28;20107;-63
2022/01/09 07:13:25;;;;;;;18.42;6.70;;;;;;;;;;5092737;28;20028;-64
2022/01/09 07:15:51;;;;;;;13.57;7.15;;;;;;;;;;5092810;28;20106;-64
2022/01/09 07:18:16;;;;;;;20.25;11.55;;;;;;;;;;5071894;28;20020;-64
2022/01/09 07:20:42;;;;;;;24.88;12.30;;;;;;;;;;5108886;28;20070;-63
2022/01/09 07:23:07;;;;;;;23.00;10.38;;;;;;;;;;5100119;28;20027;-64
2022/01/09 07:25:33;;;;;;;13.35;7.97;;;;;;;;;;5091014;28;20020;-59
2022/01/09 07:27:59;;;;;;;15.50;7.65;;;;;;;;;;5090296;28;20036;-62
2022/01/09 07:30:27;;;;;;;13.88;7.75;;;;;;;;;;5092635;28;20047;-65
2022/01/09 07:32:52;;;;;;;18.30;11.38;;;;;;;;;;5092708;28;20028;-65
2022/01/09 07:35:18;;;;;;;18.13;9.20;;;;;;;;;;5092420;28;20024;-65
2022/01/09 07:37:43;;;;;;;22.08;9.70;;;;;;;;;;5092189;28;20036;-62
2022/01/09 07:40:09;;;;;;;18.20;8.98;;;;;;;;;;5092415;28;20089;-64
2022/01/09 07:42:35;;;;;;;20.95;10.27;;;;;;;;;;5095187;28;20377;-63
2022/01/09 07:45:00;;;;;;;22.38;10.82;;;;;;;;;;5096428;28;20077;-66
2022/01/09 07:47:26;;;;;;;22.90;11.63;;;;;;;;;;5093513;28;20090;-65
2022/01/09 07:49:52;;;;;;;21.50;10.45;;;;;;;;;;5096182;28;20024;-65
2022/01/09 07:52:17;;;;;;;19.42;8.48;;;;;;;;;;5095822;28;20524;-64
2022/01/09 07:54:42;;;;;;;16.77;9.05;;;;;;;;;;5095651;28;20023;-66
2022/01/09 07:57:08;;;;;;;21.88;9.38;;;;;;;;;;5096014;28;20441;-64
2022/01/09 07:59:33;;;;;;;21.00;9.32;;;;;;;;;;5095985;28;20111;-65
2022/01/09 08:01:59;;;;;;;19.92;11.20;;;;;;;;;;5095797;28;20040;-63
2022/01/09 08:04:24;;;;;;;21.75;10.82;;;;;;;;;;5095725;28;20047;-66
2022/01/09 08:06:49;;;;;;;18.33;8.23;;;;;;;;;;5095534;28;20020;-66
2022/01/09 08:09:15;;;;;;;19.48;9.25;;;;;;;;;;5095720;28;20024;-65
2022/01/09 08:11:40;;;;;;;25.77;12.48;;;;;;;;;;5105790;28;20031;-65
2022/01/09 08:14:06;;;;;;;15.05;8.25;;;;;;;;;;5116088;28;20024;-66
2022/01/09 08:16:31;;;;;;;22.00;13.48;;;;;;;;;;5100990;28;20020;-64
2022/01/09 08:18:56;;;;;;;21.45;11.77;;;;;;;;;;5095661;28;20032;-64
2022/01/09 08:21:22;;;;;;;26.35;12.63;;;;;;;;;;5095395;28;20051;-66
2022/01/09 08:23:49;;;;;;;17.38;9.82;;;;;;;;;;5095422;28;20028;-65
2022/01/09 08:26:15;;;;;;;21.52;10.35;;;;;;;;;;5095461;28;20102;-66
2022/01/09 08:28:44;;;;;;;22.35;10.63;;;;;;;;;;5095567;28;20081;-66
2022/01/09 08:31:13;;;;;;;23.75;12.00;;;;;;;;;;5095457;28;20043;-64
2022/01/09 08:33:38;;;;;;;23.60;11.95;;;;;;;;;;5095427;28;20032;-65
2022/01/09 08:36:05;;;;;;;24.90;12.35;;;;;;;;;;5094867;28;20063;-66
2022/01/09 08:38:30;;;;;;;28.25;13.32;;;;;;;;;;5095301;28;20437;-65
2022/01/09 08:40:56;;;;;;;28.05;13.55;;;;;;;;;;5095435;28;20031;-63
2022/01/09 08:43:22;;;;;;;26.13;12.07;;;;;;;;;;5095254;28;20067;-66
2022/01/09 08:45:48;;;;;;;22.83;11.88;;;;;;;;;;5094854;28;20028;-61
2022/01/09 08:48:14;;;;;;;27.80;13.95;;;;;;;;;;5095063;28;20073;-65
2022/01/09 08:50:40;;;;;;;29.95;13.07;;;;;;;;;;5091486;28;20072;-65
2022/01/09 08:53:05;;;;;;;28.42;12.90;;;;;;;;;;5094370;28;20031;-61
2022/01/09 08:55:31;;;;;;;21.25;10.57;;;;;;;;;;5094965;28;20081;-60
2022/01/09 08:57:57;;;;;;;36.78;17.23;;;;;;;;;;5094702;28;20020;-63
2022/01/09 09:00:23;;;;;;;28.80;14.50;;;;;;;;;;5092342;28;20109;-64
2022/01/09 09:02:49;;;;;;;37.67;15.88;;;;;;;;;;5077883;28;20028;-64
2022/01/09 09:05:14;;;;;;;26.58;13.57;;;;;;;;;;5074312;28;20039;-66
2022/01/09 09:07:40;;;;;;;37.70;14.70;;;;;;;;;;5074726;28;20058;-63
2022/01/09 09:10:06;;;;;;;26.45;12.77;;;;;;;;;;5089298;28;20042;-62
2022/01/09 09:12:33;;;;;;;25.60;12.90;;;;;;;;;;5094491;28;20028;-66
2022/01/09 09:15:04;;;;;;;29.30;13.38;;;;;;;;;;5094375;28;20073;-65
2022/01/09 09:17:30;;;;;;;25.55;11.75;;;;;;;;;;5094136;28;20052;-65
2022/01/09 09:19:56;;;;;;;22.77;11.77;;;;;;;;;;5094231;28;20028;-65
2022/01/09 09:22:22;;;;;;;20.27;10.60;;;;;;;;;;5094153;28;20024;-65
2022/01/09 09:24:48;;;;;;;22.17;13.23;;;;;;;;;;5093781;28;20028;-64
2022/01/09 09:27:13;;;;;;;23.63;12.63;;;;;;;;;;5077699;28;20131;-66
2022/01/09 09:29:39;;;;;;;36.83;19.65;;;;;;;;;;5094065;28;20402;-65
2022/01/09 09:32:05;;;;;;;25.63;11.00;;;;;;;;;;5094103;28;20056;-65
2022/01/09 09:34:30;;;;;;;22.80;10.90;;;;;;;;;;5093867;28;20024;-66
2022/01/09 09:36:56;;;;;;;26.60;12.70;;;;;;;;;;5093919;28;20419;-66
2022/01/09 09:39:21;;;;;;;23.98;11.98;;;;;;;;;;5094239;28;20028;-64
2022/01/09 09:41:47;;;;;;;22.10;12.00;;;;;;;;;;5093610;28;20039;-65
2022/01/09 09:44:13;;;;;;;29.95;13.68;;;;;;;;;;5094196;28;20035;-65
2022/01/09 09:46:39;;;;;;;34.08;14.57;;;;;;;;;;5093782;28;20038;-64
2022/01/09 09:49:05;;;;;;;32.40;15.02;;;;;;;;;;5093541;28;20036;-66
2022/01/09 09:51:31;;;;;;;19.73;10.68;;;;;;;;;;5093909;28;20466;-65
2022/01/09 09:53:58;;;;;;;29.98;13.85;;;;;;;;;;5093775;28;20031;-66
2022/01/09 09:56:24;;;;;;;24.05;11.63;;;;;;;;;;5093857;28;20122;-65
2022/01/09 09:58:51;;;;;;;28.77;13.68;;;;;;;;;;5093780;28;20117;-66
2022/01/09 10:01:28;;;;;;;30.67;13.82;;;;;;;;;;5090063;28;20024;-63
2022/01/09 10:03:56;;;;;;;28.85;14.07;;;;;;;;;;5085692;28;20029;-65
2022/01/09 10:06:37;;;;;;;24.17;12.18;;;;;;;;;;5081518;28;20040;-64
2022/01/09 10:09:13;;;;;;;27.15;15.13;;;;;;;;;;5081500;28;20417;-62
2022/01/09 10:11:46;;;;;;;30.52;15.32;;;;;;;;;;5073238;28;20051;-65
2022/01/09 10:14:24;;;;;;;33.75;15.38;;;;;;;;;;5074805;28;20032;-66
2022/01/09 10:17:14;;;;;;;31.45;14.57;;;;;;;;;;5081898;28;20368;-65
2022/01/09 10:19:51;;;;;;;20.17;11.35;;;;;;;;;;5086091;28;20032;-63
2022/01/09 10:22:33;;;;;;;25.80;10.38;;;;;;;;;;5082423;28;20570;-63
2022/01/09 10:25:15;;;;;;;28.35;12.23;;;;;;;;;;5088076;28;20031;-62
2022/01/09 10:27:40;;;;;;;13.45;7.55;;;;;;;;;;5088936;28;20081;-57
2022/01/09 10:30:06;;;;;;;25.15;12.80;;;;;;;;;;5092636;28;20110;-66
2022/01/09 10:32:33;;;;;;;24.48;12.30;;;;;;;;;;5090046;28;20032;-60
2022/01/09 10:35:17;;;;;;;28.98;14.65;;;;;;;;;;5086948;28;20494;-62
2022/01/09 10:37:48;;;;;;;27.33;13.82;;;;;;;;;;5084811;28;20071;-66
2022/01/09 10:40:21;;;;;;;27.30;13.57;;;;;;;;;;5085731;28;20074;-61
2022/01/09 10:43:04;;;;;;;30.33;13.10;;;;;;;;;;5087797;28;20414;-62
2022/01/09 10:45:30;;;;;;;26.35;11.18;;;;;;;;;;5084911;28;20039;-63
2022/01/09 10:48:06;;;;;;;26.77;13.27;;;;;;;;;;5080446;28;20386;-64
2022/01/09 10:50:36;;;;;;;20.08;10.57;;;;;;;;;;5079762;28;20033;-64
2022/01/09 10:53:15;;;;;;;31.87;14.70;;;;;;;;;;5087378;28;20096;-60
2022/01/09 10:55:41;;;;;;;18.30;7.50;;;;;;;;;;5079640;28;20280;-65
2022/01/09 10:58:23;;;;;;;28.05;14.18;;;;;;;;;;5087536;28;20035;-64
2022/01/09 11:01:06;;;;;;;20.48;9.20;;;;;;;;;;5083775;28;20031;-64
2022/01/09 11:03:32;;;;;;;25.02;11.68;;;;;;;;;;5082331;28;20077;-60
2022/01/09 11:05:59;;;;;;;30.52;13.93;;;;;;;;;;5086123;28;20024;-59
2022/01/09 11:08:26;;;;;;;22.27;10.80;;;;;;;;;;5087401;28;20087;-61
2022/01/09 11:10:51;;;;;;;27.08;12.40;;;;;;;;;;5076342;28;20063;-59
2022/01/09 11:13:18;;;;;;;22.92;11.98;;;;;;;;;;5076153;28;20033;-61
2022/01/09 11:16:32;;;;;;;18.58;8.88;;;;;;;;;;5076102;28;20027;-66
2022/01/09 11:18:31;;;;;;;22.35;11.23;;;;;;;;;;5076345;28;20368;-64
2022/01/09 11:20:56;;;;;;;28.80;13.10;;;;;;;;;;5079909;28;20024;-60
2022/01/09 11:23:28;;;;;;;19.25;9.48;;;;;;;;;;5078571;28;20390;-60
2022/01/09 11:25:58;;;;;;;21.38;11.63;;;;;;;;;;5075130;28;20545;-62
2022/01/09 11:28:27;;;;;;;29.08;13.38;;;;;;;;;;5078837;28;20094;-61
2022/01/09 11:30:57;;;;;;;21.08;10.93;;;;;;;;;;5079284;28;20037;-62
2022/01/09 11:33:25;;;;;;;26.05;13.07;;;;;;;;;;5091984;28;20486;-56
2022/01/09 11:35:53;;;;;;;31.20;14.02;;;;;;;;;;5073935;28;20478;-60
2022/01/09 11:38:29;;;;;;;28.40;13.80;;;;;;;;;;5092452;28;20024;-61
2022/01/09 11:41:12;;;;;;;27.15;12.25;;;;;;;;;;5090133;28;20474;-64
2022/01/09 11:44:23;;;;;;;28.05;14.05;;;;;;;;;;5089341;28;20074;-63
2022/01/09 11:47:02;;;;;;;28.20;15.32;;;;;;;;;;5071677;28;20047;-58
2022/01/09 11:49:36;;;;;;;33.17;15.40;;;;;;;;;;5081788;28;20034;-58
2022/01/09 11:52:01;;;;;;;20.48;11.35;;;;;;;;;;5090567;28;20066;-57
2022/01/09 11:54:27;;;;;;;25.52;14.05;;;;;;;;;;5089043;28;20092;-55
2022/01/09 11:57:10;;;;;;;30.83;15.10;;;;;;;;;;5062242;28;20028;-57
2022/01/09 11:59:38;;;;;;;26.08;13.00;;;;;;;;;;5087911;28;20029;-65
2022/01/09 12:02:05;;;;;;;15.70;9.02;;;;;;;;;;5065610;28;20031;-55
2022/01/09 12:04:30;;;;;;;26.00;14.45;;;;;;;;;;5091831;28;20032;-58
2022/01/09 12:06:56;;;;;;;27.63;12.90;;;;;;;;;;5077900;28;20021;-55
2022/01/09 12:09:31;;;;;;;20.92;10.30;;;;;;;;;;5091906;28;20440;-57
2022/01/09 12:12:03;;;;;;;27.70;11.60;;;;;;;;;;5091662;28;20043;-58
2022/01/09 12:14:58;;;;;;;30.48;13.07;;;;;;;;;;5091663;28;20032;-58
2022/01/09 12:17:25;;;;;;;27.75;13.82;;;;;;;;;;5078704;28;20150;-59
2022/01/09 12:20:07;;;;;;;23.92;13.05;;;;;;;;;;5088159;28;20050;-65
2022/01/09 12:22:50;;;;;;;22.75;10.68;;;;;;;;;;5091863;28;20099;-66
2022/01/09 12:25:22;;;;;;;22.42;10.10;;;;;;;;;;5091723;28;20478;-64
2022/01/09 12:27:53;;;;;;;18.65;9.90;;;;;;;;;;5092216;28;20024;-60
2022/01/09 12:30:36;;;;;;;27.52;13.93;;;;;;;;;;5083457;28;20109;-65
2022/01/09 12:33:15;;;;;;;28.23;12.70;;;;;;;;;;5095069;28;20092;-60
2022/01/09 12:35:43;;;;;;;21.63;11.00;;;;;;;;;;5095489;28;20493;-65
2022/01/09 12:38:14;;;;;;;23.45;10.80;;;;;;;;;;5054960;28;20381;-65
2022/01/09 12:40:41;;;;;;;22.98;13.18;;;;;;;;;;5055024;28;20085;-64
2022/01/09 12:43:07;;;;;;;30.65;15.65;;;;;;;;;;5048399;28;20017;-66
2022/01/09 12:45:39;;;;;;;27.90;14.07;;;;;;;;;;5035087;28;20048;-65
2022/01/09 12:48:06;;;;;;;36.17;15.23;;;;;;;;;;5035550;28;20411;-65
2022/01/09 12:50:37;;;;;;;30.20;13.95;;;;;;;;;;5046851;28;20028;-64
2022/01/09 12:53:13;;;;;;;22.95;11.50;;;;;;;;;;5046618;28;20053;-65
2022/01/09 12:56:09;;;;;;;21.83;13.15;;;;;;;;;;5048710;28;20025;-64
2022/01/09 12:58:48;;;;;;;30.77;13.25;;;;;;;;;;5048189;28;20032;-66
2022/01/09 13:01:21;;;;;;;35.33;15.52;;;;;;;;;;5034906;28;20041;-65
2022/01/09 13:03:52;;;;;;;29.48;14.32;;;;;;;;;;5034697;28;20376;-63
2022/01/09 13:06:29;;;;;;;21.75;11.02;;;;;;;;;;5035154;28;20025;-63
2022/01/09 13:09:00;;;;;;;27.00;11.52;;;;;;;;;;5039961;28;20090;-65
2022/01/09 13:11:26;;;;;;;;;;;;;;;;;;5035022;28;20053;-66
2022/01/09 13:13:54;;;;;;;21.88;9.20;;;;;;;;;;5035537;28;20277;-63
2022/01/09 13:16:28;;;;;;;20.58;10.38;;;;;;;;;;5034582;28;20032;-64
2022/01/09 13:18:59;;;;;;;14.57;7.75;;;;;;;;;;5040916;28;20072;-65
2022/01/09 13:21:24;;;;;;;29.40;15.25;;;;;;;;;;5045003;28;20017;-66
2022/01/09 13:24:03;;;;;;;22.52;11.77;;;;;;;;;;5037570;28;20455;-64
2022/01/09 13:26:32;;;;;;;23.98;11.23;;;;;;;;;;5033959;28;20033;-65
2022/01/09 13:28:59;;;;;;;39.13;16.75;;;;;;;;;;5038395;28;20032;-64
2022/01/09 13:31:31;;;;;;;25.15;13.82;;;;;;;;;;5040378;28;20033;-64
2022/01/09 13:34:04;;;;;;;29.95;14.00;;;;;;;;;;5037849;28;20498;-65
2022/01/09 13:36:35;;;;;;;17.50;9.13;;;;;;;;;;5053023;28;20066;-64
2022/01/09 13:39:04;;;;;;;19.38;13.07;;;;;;;;;;5092441;28;20058;-65
2022/01/09 13:41:42;;;;;;;31.63;14.45;;;;;;;;;;5093639;28;20028;-61
2022/01/09 13:44:08;;;;;;;21.45;9.65;;;;;;;;;;5092188;28;20039;-58
2022/01/09 13:46:34;;;;;;;26.23;12.50;;;;;;;;;;5087069;28;20051;-63
2022/01/09 13:49:00;;;;;;;36.67;17.90;;;;;;;;;;5079839;28;20036;-60
2022/01/09 13:51:58;;;;;;;38.05;16.52;;;;;;;;;;5088614;28;20024;-56
2022/01/09 13:54:27;;;;;;;15.15;8.70;;;;;;;;;;5049302;28;20597;-59
2022/01/09 13:57:03;;;;;;;22.02;10.75;;;;;;;;;;5051007;28;20128;-58
2022/01/09 13:59:39;;;;;;;26.90;13.27;;;;;;;;;;5050925;28;20091;-57
2022/01/09 14:02:04;;;;;;;26.73;11.95;;;;;;;;;;5050715;28;20021;-59
2022/01/09 14:04:30;;;;;;;31.92;15.25;;;;;;;;;;5050693;28;20041;-52
2022/01/09 14:06:57;;;;;;;24.95;11.93;;;;;;;;;;5050581;28;20099;-58
2022/01/09 14:09:27;;;;;;;18.92;8.25;;;;;;;;;;5050425;28;20033;-56
2022/01/09 14:12:07;;;;;;;26.15;10.32;;;;;;;;;;5050705;28;20025;-55
2022/01/09 14:14:44;;;;;;;23.95;9.18;;;;;;;;;;5037166;28;20037;-56
2022/01/09 14:17:26;;;;;;;16.30;9.65;;;;;;;;;;5050084;28;20037;-58
2022/01/09 14:19:52;;;;;;;29.02;12.35;;;;;;;;;;5050191;28;20515;-58
2022/01/09 14:22:18;;;;;;;35.63;16.45;;;;;;;;;;5046618;28;20032;-57
2022/01/09 14:25:06;;;;;;;29.75;13.40;;;;;;;;;;5049311;28;20025;-63
2022/01/09 14:27:35;;;;;;;23.02;9.00;;;;;;;;;;5050513;28;20025;-58
2022/01/09 14:30:02;;;;;;;26.05;13.55;;;;;;;;;;5071635;28;20046;-55
2022/01/09 14:32:27;;;;;;;26.58;13.25;;;;;;;;;;5092541;28;20055;-56